createdAt,value
2022-10-19T00:07:54.574Z,24.80
2022-10-19T00:17:56.919Z,25.25
2022-10-19T00:27:58.829Z,21.35
2022-10-19T00:38:00.688Z,27.10
2022-10-19T00:48:02.555Z,23.23
2022-10-19T00:58:04.738Z,18.20
2022-10-19T01:08:08.667Z,14.52
2022-10-19T01:18:21.852Z,19.77
2022-10-19T01:28:26.689Z,22.20
2022-10-19T01:38:52.375Z,13.23
2022-10-19T01:49:07.661Z,20.83
2022-10-19T01:59:11.556Z,20.13
2022-10-19T02:09:19.205Z,15.15
2022-10-19T02:29:29.610Z,15.90
2022-10-19T02:39:31.774Z,18.30
2022-10-19T02:49:36.634Z,14.43
2022-10-19T02:59:38.477Z,15.43
2022-10-19T03:09:42.232Z,35.40
2022-10-19T03:19:44.712Z,26.20
2022-10-19T03:29:46.573Z,14.95
2022-10-19T03:39:48.414Z,13.20
2022-10-19T03:49:50.283Z,23.92
2022-10-19T03:59:53.605Z,13.88
2022-10-19T04:09:55.346Z,19.45
2022-10-19T04:19:57.273Z,18.35
2022-10-19T04:29:59.150Z,22.35
2022-10-19T04:40:00.931Z,21.10
2022-10-19T04:50:02.935Z,17.13
2022-10-19T05:00:05.445Z,16.70
2022-10-19T05:10:08.862Z,20.27
2022-10-19T05:20:11.097Z,15.20
2022-10-19T05:30:13.485Z,28.17
2022-10-19T05:40:15.582Z,22.05
2022-10-19T05:50:17.485Z,33.22
2022-10-19T06:01:10.659Z,22.92
2022-10-19T06:11:22.067Z,21.15
2022-10-19T06:21:26.749Z,24.40
2022-10-19T06:31:30.555Z,31.90
2022-10-19T06:41:33.007Z,38.85
2022-10-19T06:51:52.443Z,41.10
2022-10-19T07:01:54.675Z,46.13
2022-10-19T07:11:57.636Z,35.08
2022-10-19T07:22:02.550Z,22.80
2022-10-19T07:32:04.512Z,34.70
2022-10-19T07:42:18.838Z,35.10
2022-10-19T07:52:20.826Z,24.85
2022-10-19T08:02:25.018Z,44.85
2022-10-19T08:12:36.493Z,25.95
2022-10-19T08:22:38.527Z,19.15
2022-10-19T08:32:40.408Z,8.20
2022-10-19T08:42:52.742Z,4.50
2022-10-19T08:53:07.112Z,5.60
2022-10-19T09:03:56.045Z,6.32
2022-10-19T09:14:23.366Z,3.72
2022-10-19T09:24:53.182Z,3.63
2022-10-19T09:34:58.993Z,5.03
2022-10-19T09:45:25.987Z,3.30
2022-10-19T09:55:43.008Z,11.35
2022-10-19T10:05:48.019Z,16.88
2022-10-19T10:15:56.465Z,3.58
2022-10-19T10:25:59.795Z,7.35
2022-10-19T10:36:05.494Z,7.63
2022-10-19T10:46:14.892Z,4.22
2022-10-19T10:56:24.090Z,10.05
2022-10-19T11:06:44.403Z,8.02
2022-10-19T11:16:51.511Z,15.63
2022-10-19T11:27:25.077Z,5.10
2022-10-19T11:37:49.471Z,6.95
2022-10-19T11:48:13.458Z,3.92
2022-10-19T11:58:39.999Z,5.35
2022-10-19T12:08:58.024Z,2.92
2022-10-19T12:19:03.053Z,3.60
2022-10-19T12:29:12.547Z,2.22
2022-10-19T12:49:46.814Z,14.80
2022-10-19T12:59:59.906Z,8.93
2022-10-19T13:10:05.789Z,8.40
2022-10-19T13:20:13.875Z,13.95
2022-10-19T13:30:37.888Z,20.90
2022-10-19T13:41:03.948Z,6.00
2022-10-19T13:51:38.719Z,15.43
2022-10-19T14:01:46.580Z,4.45
2022-10-19T14:11:52.464Z,11.38
2022-10-19T14:21:58.141Z,4.93
2022-10-19T14:32:00.346Z,6.25
2022-10-19T14:42:06.843Z,2.13
2022-10-19T14:52:11.057Z,6.70
2022-10-19T15:02:37.123Z,10.18
2022-10-19T15:12:42.140Z,6.97
2022-10-19T15:22:43.969Z,4.68
2022-10-19T15:32:53.030Z,16.42
2022-10-19T15:42:54.884Z,8.10
2022-10-19T15:52:59.106Z,10.05
2022-10-19T16:03:00.943Z,27.17
2022-10-19T16:13:02.747Z,9.60
2022-10-19T16:23:04.699Z,7.72
2022-10-19T16:33:11.698Z,25.83
2022-10-19T16:43:18.927Z,28.70
2022-10-19T16:53:20.851Z,12.82
2022-10-19T17:03:23.162Z,12.48
2022-10-19T17:13:26.495Z,17.05
2022-10-19T17:23:28.345Z,24.00
2022-10-19T17:33:31.172Z,29.23
2022-10-19T17:43:33.461Z,22.40
2022-10-19T17:53:35.558Z,8.50
2022-10-19T18:03:38.924Z,17.08
2022-10-19T18:13:42.206Z,10.20
2022-10-19T18:23:44.583Z,10.38
2022-10-19T18:33:55.107Z,9.20
2022-10-19T18:44:05.819Z,15.88
2022-10-19T18:54:08.180Z,6.97
2022-10-19T19:04:10.609Z,15.48
2022-10-19T19:14:15.934Z,13.60
2022-10-19T19:24:20.648Z,10.77
2022-10-19T19:34:34.764Z,14.23
2022-10-19T19:44:36.629Z,14.25
2022-10-19T19:54:38.645Z,27.30
2022-10-19T20:04:41.898Z,6.47
2022-10-19T20:14:44.137Z,6.40
2022-10-19T20:24:47.263Z,14.90
2022-10-19T20:34:49.091Z,14.35
2022-10-19T20:44:50.908Z,15.15
2022-10-19T20:54:52.783Z,14.23
2022-10-19T21:04:54.594Z,17.65
2022-10-19T21:14:56.386Z,16.17
2022-10-19T21:24:58.191Z,10.07
2022-10-19T21:35:01.646Z,20.20
2022-10-19T21:45:28.724Z,19.05
2022-10-19T21:55:27.165Z,12.38
2022-10-19T22:05:29.449Z,15.40
2022-10-19T22:15:31.328Z,14.18
2022-10-19T22:25:36.416Z,17.92
2022-10-19T22:35:38.152Z,25.15
2022-10-19T22:45:40.088Z,23.08
2022-10-19T22:55:41.924Z,22.30
2022-10-19T23:05:43.752Z,16.35
2022-10-19T23:15:46.198Z,15.90
2022-10-19T23:26:06.263Z,28.38
2022-10-19T23:36:17.921Z,23.45
2022-10-19T23:46:22.956Z,20.23
2022-10-19T23:56:27.574Z,20.27
